Terminal Aerodrome Forecast
Issued by NWS

Home | Current Version | Previous Version | Text Only | Print | Product List | Glossary On
Versions: 1 2 3 4 5 6 7 8 9 10 11 12 13 14 15 16 17 18 19
000
FTUS43 KDLH 021100 RRA
TAFHYR
TAF
KHYR 021144Z 0212/0312 VRB03KT P6SM SKC
     FM030200 17009KT P6SM BKN120
     FM030900 16006KT 5SM -SN BKN025 OVC040=

USA.gov is the U.S. government's official web portal to all federal, state and local government web resources and services.